sensor_id;sensor_type;location;lat;lon;timestamp;temperature;humidity
44271;DHT22;29963;44.594;11.368;2023-02-08T00:00:23;1.10;99.90
44271;DHT22;29963;44.594;11.368;2023-02-08T00:02:50;1.10;99.90
44271;DHT22;29963;44.594;11.368;2023-02-08T00:05:17;1.10;99.90
44271;DHT22;29963;44.594;11.368;2023-02-08T00:07:43;1.10;99.90
44271;DHT22;29963;44.594;11.368;2023-02-08T00:10:09;1.10;99.90
44271;DHT22;29963;44.594;11.368;2023-02-08T00:12:36;1.10;99.90
44271;DHT22;29963;44.594;11.368;2023-02-08T00:15:04;1.10;99.90
44271;DHT22;29963;44.594;11.368;2023-02-08T00:17:30;1.10;99.90
44271;DHT22;29963;44.594;11.368;2023-02-08T00:19:56;1.00;99.90
44271;DHT22;29963;44.594;11.368;2023-02-08T00:22:22;0.90;99.90
44271;DHT22;29963;44.594;11.368;2023-02-08T00:24:49;0.90;99.90
44271;DHT22;29963;44.594;11.368;2023-02-08T00:27:16;0.90;99.90
44271;DHT22;29963;44.594;11.368;2023-02-08T00:29:41;0.80;99.90
44271;DHT22;29963;44.594;11.368;2023-02-08T00:32:07;0.70;99.90
44271;DHT22;29963;44.594;11.368;2023-02-08T00:34:35;0.70;99.90
44271;DHT22;29963;44.594;11.368;2023-02-08T00:37:01;0.60;99.90
44271;DHT22;29963;44.594;11.368;2023-02-08T00:39:27;0.60;99.90
44271;DHT22;29963;44.594;11.368;2023-02-08T00:41:52;0.50;99.90
44271;DHT22;29963;44.594;11.368;2023-02-08T00:44:18;0.50;99.90
44271;DHT22;29963;44.594;11.368;2023-02-08T00:46:46;0.20;99.90
44271;DHT22;29963;44.594;11.368;2023-02-08T00:49:15;0.10;99.90
44271;DHT22;29963;44.594;11.368;2023-02-08T00:51:41;0.10;99.90
44271;DHT22;29963;44.594;11.368;2023-02-08T00:54:17;0.10;99.90
44271;DHT22;29963;44.594;11.368;2023-02-08T00:56:43;0.20;99.90
44271;DHT22;29963;44.594;11.368;2023-02-08T00:59:09;0.30;99.90
44271;DHT22;29963;44.594;11.368;2023-02-08T01:01:35;0.30;99.90
44271;DHT22;29963;44.594;11.368;2023-02-08T01:04:01;0.30;99.90
44271;DHT22;29963;44.594;11.368;2023-02-08T01:06:27;0.20;99.90
44271;DHT22;29963;44.594;11.368;2023-02-08T01:08:53;0.20;99.90
44271;DHT22;29963;44.594;11.368;2023-02-08T01:11:20;0.20;99.90
44271;DHT22;29963;44.594;11.368;2023-02-08T01:13:48;0.20;99.90
44271;DHT22;29963;44.594;11.368;2023-02-08T01:16:31;0.10;99.90
44271;DHT22;29963;44.594;11.368;2023-02-08T01:18:58;0.10;99.90
44271;DHT22;29963;44.594;11.368;2023-02-08T01:21:33;0.20;99.90
44271;DHT22;29963;44.594;11.368;2023-02-08T01:24:01;0.20;99.90
44271;DHT22;29963;44.594;11.368;2023-02-08T01:26:27;0.20;99.90
44271;DHT22;29963;44.594;11.368;2023-02-08T01:28:54;0.20;99.90
44271;DHT22;29963;44.594;11.368;2023-02-08T01:31:26;0.20;99.90
44271;DHT22;29963;44.594;11.368;2023-02-08T01:33:56;0.30;99.90
44271;DHT22;29963;44.594;11.368;2023-02-08T01:36:22;0.20;99.90
44271;DHT22;29963;44.594;11.368;2023-02-08T01:38:48;0.20;99.90
44271;DHT22;29963;44.594;11.368;2023-02-08T01:41:38;0.10;99.90
44271;DHT22;29963;44.594;11.368;2023-02-08T01:47:08;0.10;99.90
44271;DHT22;29963;44.594;11.368;2023-02-08T01:49:40;0.10;99.90
44271;DHT22;29963;44.594;11.368;2023-02-08T01:52:12;0.10;99.90
44271;DHT22;29963;44.594;11.368;2023-02-08T01:55:12;0.10;99.90
44271;DHT22;29963;44.594;11.368;2023-02-08T01:57:40;0.00;99.90
44271;DHT22;29963;44.594;11.368;2023-02-08T02:00:18;-0.10;99.90
44271;DHT22;29963;44.594;11.368;2023-02-08T02:02:46;-0.10;99.90
44271;DHT22;29963;44.594;11.368;2023-02-08T02:05:15;-0.10;99.90
44271;DHT22;29963;44.594;11.368;2023-02-08T02:07:42;0.00;99.90
44271;DHT22;29963;44.594;11.368;2023-02-08T02:12:37;0.10;99.90
44271;DHT22;29963;44.594;11.368;2023-02-08T02:15:06;0.10;99.90
44271;DHT22;29963;44.594;11.368;2023-02-08T02:17:32;0.10;99.90
44271;DHT22;29963;44.594;11.368;2023-02-08T02:23:07;0.10;99.90
44271;DHT22;29963;44.594;11.368;2023-02-08T02:36:27;-0.20;99.90
44271;DHT22;29963;44.594;11.368;2023-02-08T02:39:17;-0.20;99.90
44271;DHT22;29963;44.594;11.368;2023-02-08T02:44:53;-0.30;99.90
44271;DHT22;29963;44.594;11.368;2023-02-08T02:47:30;-0.40;99.90
44271;DHT22;29963;44.594;11.368;2023-02-08T02:52:45;-0.30;99.90
44271;DHT22;29963;44.594;11.368;2023-02-08T02:55:16;-0.30;99.90
44271;DHT22;29963;44.594;11.368;2023-02-08T02:57:44;-0.40;99.90
44271;DHT22;29963;44.594;11.368;2023-02-08T03:00:15;-0.30;99.90
44271;DHT22;29963;44.594;11.368;2023-02-08T03:02:45;-0.30;99.90
44271;DHT22;29963;44.594;11.368;2023-02-08T03:05:13;-0.30;99.90
44271;DHT22;29963;44.594;11.368;2023-02-08T03:18:46;-0.50;99.90
44271;DHT22;29963;44.594;11.368;2023-02-08T03:24:21;-0.60;99.90
44271;DHT22;29963;44.594;11.368;2023-02-08T03:27:03;-0.60;99.90
44271;DHT22;29963;44.594;11.368;2023-02-08T03:32:09;-0.80;99.90
44271;DHT22;29963;44.594;11.368;2023-02-08T03:35:02;-0.90;99.90
44271;DHT22;29963;44.594;11.368;2023-02-08T03:37:40;-0.90;99.90
44271;DHT22;29963;44.594;11.368;2023-02-08T03:40:13;-0.90;99.90
44271;DHT22;29963;44.594;11.368;2023-02-08T03:42:41;-0.80;99.90
44271;DHT22;29963;44.594;11.368;2023-02-08T03:45:25;-0.70;99.90
44271;DHT22;29963;44.594;11.368;2023-02-08T03:47:56;-0.70;99.90
44271;DHT22;29963;44.594;11.368;2023-02-08T03:50:23;-0.80;99.90
44271;DHT22;29963;44.594;11.368;2023-02-08T03:52:50;-0.90;99.90
44271;DHT22;29963;44.594;11.368;2023-02-08T03:55:25;-0.90;99.90
44271;DHT22;29963;44.594;11.368;2023-02-08T04:00:45;-1.10;99.90
44271;DHT22;29963;44.594;11.368;2023-02-08T04:03:24;-1.00;99.90
44271;DHT22;29963;44.594;11.368;2023-02-08T04:05:51;-1.00;99.90
44271;DHT22;29963;44.594;11.368;2023-02-08T04:08:17;-1.00;99.90
44271;DHT22;29963;44.594;11.368;2023-02-08T04:10:44;-1.00;99.90
44271;DHT22;29963;44.594;11.368;2023-02-08T04:13:10;-1.00;99.90
44271;DHT22;29963;44.594;11.368;2023-02-08T04:15:38;-1.00;99.90
44271;DHT22;29963;44.594;11.368;2023-02-08T04:18:07;-1.00;99.90
44271;DHT22;29963;44.594;11.368;2023-02-08T04:20:32;-0.60;99.90
44271;DHT22;29963;44.594;11.368;2023-02-08T04:22:58;-0.90;99.90
44271;DHT22;29963;44.594;11.368;2023-02-08T04:25:24;-0.90;99.90
44271;DHT22;29963;44.594;11.368;2023-02-08T04:27:49;-0.80;99.90
44271;DHT22;29963;44.594;11.368;2023-02-08T04:30:15;-0.80;99.90
44271;DHT22;29963;44.594;11.368;2023-02-08T04:32:43;-0.80;99.90
44271;DHT22;29963;44.594;11.368;2023-02-08T04:35:11;-0.80;99.90
44271;DHT22;29963;44.594;11.368;2023-02-08T04:37:37;-0.80;99.90
44271;DHT22;29963;44.594;11.368;2023-02-08T04:40:03;-0.80;99.90
44271;DHT22;29963;44.594;11.368;2023-02-08T04:42:29;-0.80;99.90
44271;DHT22;29963;44.594;11.368;2023-02-08T04:44:54;-0.80;99.90
44271;DHT22;29963;44.594;11.368;2023-02-08T04:47:20;-0.90;99.90
44271;DHT22;29963;44.594;11.368;2023-02-08T04:49:46;-0.90;99.90
44271;DHT22;29963;44.594;11.368;2023-02-08T04:52:12;-0.90;99.90
44271;DHT22;29963;44.594;11.368;2023-02-08T04:54:37;-1.00;99.90
44271;DHT22;29963;44.594;11.368;2023-02-08T04:57:06;-1.00;99.90
44271;DHT22;29963;44.594;11.368;2023-02-08T04:59:31;-1.00;99.90
44271;DHT22;29963;44.594;11.368;2023-02-08T05:01:57;-1.00;99.90
44271;DHT22;29963;44.594;11.368;2023-02-08T05:04:23;-1.10;99.90
44271;DHT22;29963;44.594;11.368;2023-02-08T05:06:48;-1.10;99.90
44271;DHT22;29963;44.594;11.368;2023-02-08T05:09:14;-1.10;99.90
44271;DHT22;29963;44.594;11.368;2023-02-08T05:11:40;-1.10;99.90
44271;DHT22;29963;44.594;11.368;2023-02-08T05:14:07;-1.10;99.90
44271;DHT22;29963;44.594;11.368;2023-02-08T05:16:36;-1.10;99.90
44271;DHT22;29963;44.594;11.368;2023-02-08T05:19:01;-1.20;99.90
44271;DHT22;29963;44.594;11.368;2023-02-08T05:21:30;-1.30;99.90
44271;DHT22;29963;44.594;11.368;2023-02-08T05:23:55;-1.30;99.90
44271;DHT22;29963;44.594;11.368;2023-02-08T05:26:21;-1.30;99.90
44271;DHT22;29963;44.594;11.368;2023-02-08T05:28:49;-1.20;99.90
44271;DHT22;29963;44.594;11.368;2023-02-08T05:31:22;-1.20;99.90
44271;DHT22;29963;44.594;11.368;2023-02-08T05:33:50;-1.20;99.90
44271;DHT22;29963;44.594;11.368;2023-02-08T05:36:19;-1.10;99.90
44271;DHT22;29963;44.594;11.368;2023-02-08T05:38:45;-1.20;99.90
44271;DHT22;29963;44.594;11.368;2023-02-08T05:41:11;-1.20;99.90
44271;DHT22;29963;44.594;11.368;2023-02-08T05:43:36;-1.20;99.90
44271;DHT22;29963;44.594;11.368;2023-02-08T05:46:03;-1.20;99.90
44271;DHT22;29963;44.594;11.368;2023-02-08T05:48:30;-1.20;99.90
44271;DHT22;29963;44.594;11.368;2023-02-08T05:50:55;-1.30;99.90
44271;DHT22;29963;44.594;11.368;2023-02-08T05:53:23;-1.30;99.90
44271;DHT22;29963;44.594;11.368;2023-02-08T05:55:49;-1.30;99.90
44271;DHT22;29963;44.594;11.368;2023-02-08T05:58:18;-1.30;99.90
44271;DHT22;29963;44.594;11.368;2023-02-08T06:00:44;-1.30;99.90
44271;DHT22;29963;44.594;11.368;2023-02-08T06:03:12;-1.30;99.90
44271;DHT22;29963;44.594;11.368;2023-02-08T06:05:41;-1.30;99.90
44271;DHT22;29963;44.594;11.368;2023-02-08T06:08:07;-1.40;99.90
44271;DHT22;29963;44.594;11.368;2023-02-08T06:10:33;-1.40;99.90
44271;DHT22;29963;44.594;11.368;2023-02-08T06:12:58;-1.40;99.90
44271;DHT22;29963;44.594;11.368;2023-02-08T06:15:27;-1.40;99.90
44271;DHT22;29963;44.594;11.368;2023-02-08T06:17:53;-1.50;99.90
44271;DHT22;29963;44.594;11.368;2023-02-08T06:20:23;-1.50;99.90
44271;DHT22;29963;44.594;11.368;2023-02-08T06:22:49;-1.50;99.90
44271;DHT22;29963;44.594;11.368;2023-02-08T06:25:18;-1.60;99.90
44271;DHT22;29963;44.594;11.368;2023-02-08T06:27:43;-1.70;99.90
44271;DHT22;29963;44.594;11.368;2023-02-08T06:30:10;-1.70;99.90
44271;DHT22;29963;44.594;11.368;2023-02-08T06:32:35;-1.60;99.90
44271;DHT22;29963;44.594;11.368;2023-02-08T06:35:01;-1.60;99.90
44271;DHT22;29963;44.594;11.368;2023-02-08T06:37:30;-1.60;99.90
44271;DHT22;29963;44.594;11.368;2023-02-08T06:39:55;-1.70;99.90
44271;DHT22;29963;44.594;11.368;2023-02-08T06:42:21;-1.80;99.90
44271;DHT22;29963;44.594;11.368;2023-02-08T06:44:47;-1.70;99.90
44271;DHT22;29963;44.594;11.368;2023-02-08T06:47:14;-1.70;99.90
44271;DHT22;29963;44.594;11.368;2023-02-08T06:49:40;-1.70;99.90
44271;DHT22;29963;44.594;11.368;2023-02-08T06:52:12;-1.70;99.90
44271;DHT22;29963;44.594;11.368;2023-02-08T06:54:37;-1.70;99.90
44271;DHT22;29963;44.594;11.368;2023-02-08T06:57:03;-1.60;99.90
44271;DHT22;29963;44.594;11.368;2023-02-08T06:59:33;-1.60;99.90
44271;DHT22;29963;44.594;11.368;2023-02-08T07:01:58;-1.50;99.90
44271;DHT22;29963;44.594;11.368;2023-02-08T07:04:24;-1.50;99.90
44271;DHT22;29963;44.594;11.368;2023-02-08T07:06:50;-1.40;99.90
44271;DHT22;29963;44.594;11.368;2023-02-08T07:09:16;-1.30;99.90
44271;DHT22;29963;44.594;11.368;2023-02-08T07:11:42;-1.30;99.90
44271;DHT22;29963;44.594;11.368;2023-02-08T07:14:11;-1.30;99.90
44271;DHT22;29963;44.594;11.368;2023-02-08T07:16:42;-1.40;99.90
44271;DHT22;29963;44.594;11.368;2023-02-08T07:19:08;-1.40;99.90
44271;DHT22;29963;44.594;11.368;2023-02-08T07:21:34;-1.30;99.90
44271;DHT22;29963;44.594;11.368;2023-02-08T07:23:59;-1.40;99.90
44271;DHT22;29963;44.594;11.368;2023-02-08T07:26:25;-1.40;99.90
44271;DHT22;29963;44.594;11.368;2023-02-08T07:28:56;-1.40;99.90
44271;DHT22;29963;44.594;11.368;2023-02-08T07:31:22;-1.40;99.90
44271;DHT22;29963;44.594;11.368;2023-02-08T07:33:48;-1.40;99.90
44271;DHT22;29963;44.594;11.368;2023-02-08T07:36:16;-1.40;99.90
44271;DHT22;29963;44.594;11.368;2023-02-08T07:38:41;-1.40;99.90
44271;DHT22;29963;44.594;11.368;2023-02-08T07:41:10;-1.30;99.90
44271;DHT22;29963;44.594;11.368;2023-02-08T07:43:37;-1.20;99.90
44271;DHT22;29963;44.594;11.368;2023-02-08T07:46:08;-1.20;99.90
44271;DHT22;29963;44.594;11.368;2023-02-08T07:48:34;-1.10;99.90
44271;DHT22;29963;44.594;11.368;2023-02-08T07:51:03;-1.00;99.90
44271;DHT22;29963;44.594;11.368;2023-02-08T07:53:29;-0.80;99.90
44271;DHT22;29963;44.594;11.368;2023-02-08T07:55:55;-0.80;99.90
44271;DHT22;29963;44.594;11.368;2023-02-08T07:58:22;-0.70;99.90
44271;DHT22;29963;44.594;11.368;2023-02-08T08:00:50;-0.70;99.90
44271;DHT22;29963;44.594;11.368;2023-02-08T08:03:16;-0.60;99.90
44271;DHT22;29963;44.594;11.368;2023-02-08T08:05:42;-0.50;99.90
44271;DHT22;29963;44.594;11.368;2023-02-08T08:08:09;-0.50;99.90
44271;DHT22;29963;44.594;11.368;2023-02-08T08:10:35;-0.40;99.90
44271;DHT22;29963;44.594;11.368;2023-02-08T08:13:01;-0.40;99.90
44271;DHT22;29963;44.594;11.368;2023-02-08T08:15:27;-0.30;99.90
44271;DHT22;29963;44.594;11.368;2023-02-08T08:17:53;-0.20;99.90
44271;DHT22;29963;44.594;11.368;2023-02-08T08:20:19;-0.10;99.90
44271;DHT22;29963;44.594;11.368;2023-02-08T08:22:51;0.00;99.90
44271;DHT22;29963;44.594;11.368;2023-02-08T08:25:17;0.10;99.90
44271;DHT22;29963;44.594;11.368;2023-02-08T08:27:43;0.10;99.90
44271;DHT22;29963;44.594;11.368;2023-02-08T08:30:11;0.20;99.90
44271;DHT22;29963;44.594;11.368;2023-02-08T08:32:40;0.30;99.90
44271;DHT22;29963;44.594;11.368;2023-02-08T08:35:06;0.40;99.90
44271;DHT22;29963;44.594;11.368;2023-02-08T08:37:33;0.40;99.90
44271;DHT22;29963;44.594;11.368;2023-02-08T08:39:59;0.50;99.90
44271;DHT22;29963;44.594;11.368;2023-02-08T08:42:25;0.60;99.90
44271;DHT22;29963;44.594;11.368;2023-02-08T08:44:51;0.60;99.90
44271;DHT22;29963;44.594;11.368;2023-02-08T08:47:17;0.60;99.90
44271;DHT22;29963;44.594;11.368;2023-02-08T08:49:43;0.70;99.90
44271;DHT22;29963;44.594;11.368;2023-02-08T08:52:10;0.70;99.90
44271;DHT22;29963;44.594;11.368;2023-02-08T08:54:36;0.80;99.90
44271;DHT22;29963;44.594;11.368;2023-02-08T08:57:04;0.80;99.90
44271;DHT22;29963;44.594;11.368;2023-02-08T08:59:32;1.00;99.90
44271;DHT22;29963;44.594;11.368;2023-02-08T09:01:58;1.00;99.90
44271;DHT22;29963;44.594;11.368;2023-02-08T09:04:27;1.00;99.90
44271;DHT22;29963;44.594;11.368;2023-02-08T09:06:53;1.10;99.90
44271;DHT22;29963;44.594;11.368;2023-02-08T09:09:20;1.10;99.90
44271;DHT22;29963;44.594;11.368;2023-02-08T09:11:46;1.10;99.90
44271;DHT22;29963;44.594;11.368;2023-02-08T09:14:14;1.20;99.90
44271;DHT22;29963;44.594;11.368;2023-02-08T09:16:41;1.20;99.90
44271;DHT22;29963;44.594;11.368;2023-02-08T09:19:09;1.10;99.90
44271;DHT22;29963;44.594;11.368;2023-02-08T09:21:35;1.20;99.90
44271;DHT22;29963;44.594;11.368;2023-02-08T09:24:01;1.30;99.90
44271;DHT22;29963;44.594;11.368;2023-02-08T09:26:28;1.40;99.90
44271;DHT22;29963;44.594;11.368;2023-02-08T09:28:54;1.60;99.90
44271;DHT22;29963;44.594;11.368;2023-02-08T09:31:20;1.70;99.90
44271;DHT22;29963;44.594;11.368;2023-02-08T09:33:48;1.80;99.90
44271;DHT22;29963;44.594;11.368;2023-02-08T09:36:15;1.90;99.90
44271;DHT22;29963;44.594;11.368;2023-02-08T09:38:41;1.80;99.90
44271;DHT22;29963;44.594;11.368;2023-02-08T09:46:37;2.00;99.90
44271;DHT22;29963;44.594;11.368;2023-02-08T09:49:15;2.00;99.90
44271;DHT22;29963;44.594;11.368;2023-02-08T09:51:46;2.10;99.90
44271;DHT22;29963;44.594;11.368;2023-02-08T09:54:36;2.20;99.90
44271;DHT22;29963;44.594;11.368;2023-02-08T09:57:12;2.20;99.90
44271;DHT22;29963;44.594;11.368;2023-02-08T09:59:54;2.30;99.90
44271;DHT22;29963;44.594;11.368;2023-02-08T10:05:05;2.50;99.90
44271;DHT22;29963;44.594;11.368;2023-02-08T10:07:32;2.50;99.90
44271;DHT22;29963;44.594;11.368;2023-02-08T10:10:11;2.50;99.90
44271;DHT22;29963;44.594;11.368;2023-02-08T10:12:57;2.60;99.90
44271;DHT22;29963;44.594;11.368;2023-02-08T10:15:34;2.70;99.90
44271;DHT22;29963;44.594;11.368;2023-02-08T10:21:23;2.90;99.90
44271;DHT22;29963;44.594;11.368;2023-02-08T10:26:55;3.00;99.90
44271;DHT22;29963;44.594;11.368;2023-02-08T10:37:20;3.20;99.90
44271;DHT22;29963;44.594;11.368;2023-02-08T10:39:49;3.30;99.90
44271;DHT22;29963;44.594;11.368;2023-02-08T10:42:18;3.30;99.90
44271;DHT22;29963;44.594;11.368;2023-02-08T10:45:14;3.20;99.90
44271;DHT22;29963;44.594;11.368;2023-02-08T10:47:46;3.20;99.90
44271;DHT22;29963;44.594;11.368;2023-02-08T10:50:35;3.30;99.90
44271;DHT22;29963;44.594;11.368;2023-02-08T10:53:02;3.30;99.90
44271;DHT22;29963;44.594;11.368;2023-02-08T10:55:31;3.40;99.90
44271;DHT22;29963;44.594;11.368;2023-02-08T10:58:03;3.50;99.90
44271;DHT22;29963;44.594;11.368;2023-02-08T11:00:37;3.70;99.90
44271;DHT22;29963;44.594;11.368;2023-02-08T11:03:22;3.70;99.90
44271;DHT22;29963;44.594;11.368;2023-02-08T11:05:48;3.80;99.90
44271;DHT22;29963;44.594;11.368;2023-02-08T11:08:21;3.80;99.90
44271;DHT22;29963;44.594;11.368;2023-02-08T11:10:57;3.90;99.90
44271;DHT22;29963;44.594;11.368;2023-02-08T11:13:25;4.00;99.90
44271;DHT22;29963;44.594;11.368;2023-02-08T11:16:00;4.10;99.90
44271;DHT22;29963;44.594;11.368;2023-02-08T11:18:33;4.10;99.90
44271;DHT22;29963;44.594;11.368;2023-02-08T11:21:08;4.20;99.90
44271;DHT22;29963;44.594;11.368;2023-02-08T11:23:41;4.30;99.90
44271;DHT22;29963;44.594;11.368;2023-02-08T11:29:16;4.20;99.90
44271;DHT22;29963;44.594;11.368;2023-02-08T11:34:24;4.30;99.90
44271;DHT22;29963;44.594;11.368;2023-02-08T11:36:50;4.30;99.90
44271;DHT22;29963;44.594;11.368;2023-02-08T11:41:59;4.30;99.90
44271;DHT22;29963;44.594;11.368;2023-02-08T11:44:35;4.40;99.90
44271;DHT22;29963;44.594;11.368;2023-02-08T11:47:06;4.60;99.90
44271;DHT22;29963;44.594;11.368;2023-02-08T11:49:39;4.70;99.90
44271;DHT22;29963;44.594;11.368;2023-02-08T11:52:23;4.80;99.90
44271;DHT22;29963;44.594;11.368;2023-02-08T11:54:53;4.90;99.90
44271;DHT22;29963;44.594;11.368;2023-02-08T11:57:23;5.00;99.90
44271;DHT22;29963;44.594;11.368;2023-02-08T11:59:51;5.10;99.90
44271;DHT22;29963;44.594;11.368;2023-02-08T12:02:37;5.20;99.90
44271;DHT22;29963;44.594;11.368;2023-02-08T12:05:12;5.40;99.90
44271;DHT22;29963;44.594;11.368;2023-02-08T12:18:47;5.90;99.90
44271;DHT22;29963;44.594;11.368;2023-02-08T12:27:16;6.40;99.90
44271;DHT22;29963;44.594;11.368;2023-02-08T12:41:35;6.90;99.90
44271;DHT22;29963;44.594;11.368;2023-02-08T12:50:31;7.00;99.90
44271;DHT22;29963;44.594;11.368;2023-02-08T12:55:36;6.90;99.90
44271;DHT22;29963;44.594;11.368;2023-02-08T12:58:23;6.90;99.90
44271;DHT22;29963;44.594;11.368;2023-02-08T13:01:01;6.90;99.90
44271;DHT22;29963;44.594;11.368;2023-02-08T13:03:44;6.90;99.90
44271;DHT22;29963;44.594;11.368;2023-02-08T13:06:19;6.90;99.90
44271;DHT22;29963;44.594;11.368;2023-02-08T13:14:37;6.90;99.90
44271;DHT22;29963;44.594;11.368;2023-02-08T13:17:16;7.00;99.90
44271;DHT22;29963;44.594;11.368;2023-02-08T13:20:03;7.00;99.90
44271;DHT22;29963;44.594;11.368;2023-02-08T13:22:36;7.00;99.90
44271;DHT22;29963;44.594;11.368;2023-02-08T13:25:08;7.00;99.90
44271;DHT22;29963;44.594;11.368;2023-02-08T13:27:38;7.00;99.90
44271;DHT22;29963;44.594;11.368;2023-02-08T13:30:17;7.00;99.90
44271;DHT22;29963;44.594;11.368;2023-02-08T13:32:44;7.00;99.90
44271;DHT22;29963;44.594;11.368;2023-02-08T13:35:28;7.10;99.90
44271;DHT22;29963;44.594;11.368;2023-02-08T13:38:15;7.10;99.90
44271;DHT22;29963;44.594;11.368;2023-02-08T13:40:42;7.20;99.90
44271;DHT22;29963;44.594;11.368;2023-02-08T13:43:29;7.30;99.90
44271;DHT22;29963;44.594;11.368;2023-02-08T13:45:58;7.30;99.50
44271;DHT22;29963;44.594;11.368;2023-02-08T13:48:40;7.40;99.40
44271;DHT22;29963;44.594;11.368;2023-02-08T13:59:37;7.40;99.20
44271;DHT22;29963;44.594;11.368;2023-02-08T14:04:41;7.40;99.30
44271;DHT22;29963;44.594;11.368;2023-02-08T14:10:16;7.30;99.30
44271;DHT22;29963;44.594;11.368;2023-02-08T14:15:35;7.20;99.20
44271;DHT22;29963;44.594;11.368;2023-02-08T14:18:03;7.20;99.10
44271;DHT22;29963;44.594;11.368;2023-02-08T14:20:33;7.20;99.10
44271;DHT22;29963;44.594;11.368;2023-02-08T14:23:04;7.10;99.20
44271;DHT22;29963;44.594;11.368;2023-02-08T14:25:40;7.10;99.10
44271;DHT22;29963;44.594;11.368;2023-02-08T14:28:30;7.10;99.00
44271;DHT22;29963;44.594;11.368;2023-02-08T14:30:58;7.20;99.10
44271;DHT22;29963;44.594;11.368;2023-02-08T14:33:34;7.70;99.00
44271;DHT22;29963;44.594;11.368;2023-02-08T14:36:06;8.40;98.20
44271;DHT22;29963;44.594;11.368;2023-02-08T14:50:04;8.40;97.60
44271;DHT22;29963;44.594;11.368;2023-02-08T14:52:37;9.10;97.40
44271;DHT22;29963;44.594;11.368;2023-02-08T14:55:15;10.20;96.60
44271;DHT22;29963;44.594;11.368;2023-02-08T14:57:42;11.10;95.10
44271;DHT22;29963;44.594;11.368;2023-02-08T15:00:21;11.40;94.00
44271;DHT22;29963;44.594;11.368;2023-02-08T15:02:50;12.10;93.50
44271;DHT22;29963;44.594;11.368;2023-02-08T15:05:37;12.70;91.90
44271;DHT22;29963;44.594;11.368;2023-02-08T15:08:05;13.40;90.60
44271;DHT22;29963;44.594;11.368;2023-02-08T15:10:32;14.00;87.60
44271;DHT22;29963;44.594;11.368;2023-02-08T15:13:03;14.40;84.60
44271;DHT22;29963;44.594;11.368;2023-02-08T15:15:40;14.70;82.20
44271;DHT22;29963;44.594;11.368;2023-02-08T15:18:17;15.10;80.30
44271;DHT22;29963;44.594;11.368;2023-02-08T15:20:44;15.20;78.90
44271;DHT22;29963;44.594;11.368;2023-02-08T15:23:23;15.50;77.10
44271;DHT22;29963;44.594;11.368;2023-02-08T15:26:03;15.70;75.10
44271;DHT22;29963;44.594;11.368;2023-02-08T15:28:33;15.90;74.50
44271;DHT22;29963;44.594;11.368;2023-02-08T15:31:12;16.10;73.60
44271;DHT22;29963;44.594;11.368;2023-02-08T15:33:40;16.20;71.90
44271;DHT22;29963;44.594;11.368;2023-02-08T15:36:25;16.10;69.70
44271;DHT22;29963;44.594;11.368;2023-02-08T15:38:54;15.90;69.50
44271;DHT22;29963;44.594;11.368;2023-02-08T15:41:26;15.80;71.00
44271;DHT22;29963;44.594;11.368;2023-02-08T15:44:25;15.60;70.50
44271;DHT22;29963;44.594;11.368;2023-02-08T15:46:58;15.10;69.10
44271;DHT22;29963;44.594;11.368;2023-02-08T15:49:34;14.60;70.50
44271;DHT22;29963;44.594;11.368;2023-02-08T15:52:01;14.90;71.10
44271;DHT22;29963;44.594;11.368;2023-02-08T15:54:27;13.80;72.00
44271;DHT22;29963;44.594;11.368;2023-02-08T15:59:28;13.20;71.60
44271;DHT22;29963;44.594;11.368;2023-02-08T16:01:56;12.60;72.10
44271;DHT22;29963;44.594;11.368;2023-02-08T16:04:25;11.90;74.20
44271;DHT22;29963;44.594;11.368;2023-02-08T16:06:53;11.20;77.00
44271;DHT22;29963;44.594;11.368;2023-02-08T16:09:27;10.60;79.20
44271;DHT22;29963;44.594;11.368;2023-02-08T16:11:58;10.10;81.70
44271;DHT22;29963;44.594;11.368;2023-02-08T16:14:26;9.70;83.80
44271;DHT22;29963;44.594;11.368;2023-02-08T16:16:57;9.40;85.90
44271;DHT22;29963;44.594;11.368;2023-02-08T16:21:52;8.80;89.00
44271;DHT22;29963;44.594;11.368;2023-02-08T16:24:29;8.60;90.20
44271;DHT22;29963;44.594;11.368;2023-02-08T16:29:28;8.20;90.60
44271;DHT22;29963;44.594;11.368;2023-02-08T16:34:43;7.90;91.30
44271;DHT22;29963;44.594;11.368;2023-02-08T16:42:33;7.60;92.70
44271;DHT22;29963;44.594;11.368;2023-02-08T16:47:36;7.50;93.60
44271;DHT22;29963;44.594;11.368;2023-02-08T16:50:09;7.50;93.90
44271;DHT22;29963;44.594;11.368;2023-02-08T16:52:35;7.40;94.50
44271;DHT22;29963;44.594;11.368;2023-02-08T16:55:01;7.40;94.80
44271;DHT22;29963;44.594;11.368;2023-02-08T17:00:31;7.30;95.80
44271;DHT22;29963;44.594;11.368;2023-02-08T17:02:57;7.20;96.20
44271;DHT22;29963;44.594;11.368;2023-02-08T17:05:27;7.20;96.50
44271;DHT22;29963;44.594;11.368;2023-02-08T17:07:54;7.20;96.80
44271;DHT22;29963;44.594;11.368;2023-02-08T17:10:23;7.20;96.80
44271;DHT22;29963;44.594;11.368;2023-02-08T17:12:50;7.20;96.70
44271;DHT22;29963;44.594;11.368;2023-02-08T17:15:15;7.20;96.80
44271;DHT22;29963;44.594;11.368;2023-02-08T17:17:48;7.10;97.00
44271;DHT22;29963;44.594;11.368;2023-02-08T17:20:26;7.10;97.30
44271;DHT22;29963;44.594;11.368;2023-02-08T17:22:56;7.00;97.70
44271;DHT22;29963;44.594;11.368;2023-02-08T17:25:23;7.00;97.90
44271;DHT22;29963;44.594;11.368;2023-02-08T17:27:56;6.90;97.90
44271;DHT22;29963;44.594;11.368;2023-02-08T17:30:27;6.90;98.10
44271;DHT22;29963;44.594;11.368;2023-02-08T17:32:53;6.90;98.20
44271;DHT22;29963;44.594;11.368;2023-02-08T17:35:23;6.80;98.10
44271;DHT22;29963;44.594;11.368;2023-02-08T17:37:50;6.80;98.10
44271;DHT22;29963;44.594;11.368;2023-02-08T17:40:18;6.70;97.80
44271;DHT22;29963;44.594;11.368;2023-02-08T17:42:44;6.70;97.80
44271;DHT22;29963;44.594;11.368;2023-02-08T17:45:11;6.60;97.90
44271;DHT22;29963;44.594;11.368;2023-02-08T17:47:37;6.60;98.10
44271;DHT22;29963;44.594;11.368;2023-02-08T17:50:07;6.50;98.00
44271;DHT22;29963;44.594;11.368;2023-02-08T17:52:33;6.40;98.00
44271;DHT22;29963;44.594;11.368;2023-02-08T17:55:00;6.40;98.10
44271;DHT22;29963;44.594;11.368;2023-02-08T17:57:26;6.30;98.00
44271;DHT22;29963;44.594;11.368;2023-02-08T17:59:52;6.30;98.10
44271;DHT22;29963;44.594;11.368;2023-02-08T18:02:18;6.20;98.20
44271;DHT22;29963;44.594;11.368;2023-02-08T18:04:46;6.20;98.30
44271;DHT22;29963;44.594;11.368;2023-02-08T18:07:12;6.10;98.40
44271;DHT22;29963;44.594;11.368;2023-02-08T18:09:38;6.00;98.60
44271;DHT22;29963;44.594;11.368;2023-02-08T18:12:04;5.90;98.80
44271;DHT22;29963;44.594;11.368;2023-02-08T18:14:30;5.90;99.00
44271;DHT22;29963;44.594;11.368;2023-02-08T18:16:56;5.80;99.10
44271;DHT22;29963;44.594;11.368;2023-02-08T18:19:24;5.90;99.20
44271;DHT22;29963;44.594;11.368;2023-02-08T18:21:50;5.80;99.30
44271;DHT22;29963;44.594;11.368;2023-02-08T18:24:16;5.70;99.30
44271;DHT22;29963;44.594;11.368;2023-02-08T18:26:44;5.70;99.50
44271;DHT22;29963;44.594;11.368;2023-02-08T18:29:10;5.60;99.60